sensor_id;sensor_type;location;lat;lon;timestamp;temperature;humidity
15937;DHT22;9163;48.818;8.976;2023-07-20T00:02:10;18.30;1.00
15937;DHT22;9163;48.818;8.976;2023-07-20T00:04:38;18.20;99.90
15937;DHT22;9163;48.818;8.976;2023-07-20T00:07:05;18.20;1.00
15937;DHT22;9163;48.818;8.976;2023-07-20T00:09:32;18.10;99.90
15937;DHT22;9163;48.818;8.976;2023-07-20T00:12:01;18.10;1.00
15937;DHT22;9163;48.818;8.976;2023-07-20T00:14:28;18.10;99.90
15937;DHT22;9163;48.818;8.976;2023-07-20T00:16:56;18.00;1.00
15937;DHT22;9163;48.818;8.976;2023-07-20T00:19:24;18.00;1.00
15937;DHT22;9163;48.818;8.976;2023-07-20T00:21:51;17.90;1.00
15937;DHT22;9163;48.818;8.976;2023-07-20T00:24:19;17.80;1.00
15937;DHT22;9163;48.818;8.976;2023-07-20T00:26:46;17.60;1.00
15937;DHT22;9163;48.818;8.976;2023-07-20T00:29:15;17.50;1.00
15937;DHT22;9163;48.818;8.976;2023-07-20T00:31:42;17.20;1.00
15937;DHT22;9163;48.818;8.976;2023-07-20T00:34:09;17.20;1.00
15937;DHT22;9163;48.818;8.976;2023-07-20T00:36:36;17.10;1.00
15937;DHT22;9163;48.818;8.976;2023-07-20T00:39:04;17.10;1.00
15937;DHT22;9163;48.818;8.976;2023-07-20T00:41:31;17.00;1.00
15937;DHT22;9163;48.818;8.976;2023-07-20T00:43:59;17.00;1.00
15937;DHT22;9163;48.818;8.976;2023-07-20T00:46:27;16.80;1.00
15937;DHT22;9163;48.818;8.976;2023-07-20T00:48:55;16.80;1.00
15937;DHT22;9163;48.818;8.976;2023-07-20T00:51:23;16.80;1.00
15937;DHT22;9163;48.818;8.976;2023-07-20T00:53:52;16.80;1.00
15937;DHT22;9163;48.818;8.976;2023-07-20T00:56:19;16.80;1.00
15937;DHT22;9163;48.818;8.976;2023-07-20T00:58:47;16.80;1.00
15937;DHT22;9163;48.818;8.976;2023-07-20T01:01:14;16.90;1.00
15937;DHT22;9163;48.818;8.976;2023-07-20T01:03:43;16.80;1.00
15937;DHT22;9163;48.818;8.976;2023-07-20T01:06:16;16.70;1.00
15937;DHT22;9163;48.818;8.976;2023-07-20T01:08:53;16.60;1.00
15937;DHT22;9163;48.818;8.976;2023-07-20T01:11:31;16.60;1.00
15937;DHT22;9163;48.818;8.976;2023-07-20T01:13:59;16.50;1.00
15937;DHT22;9163;48.818;8.976;2023-07-20T01:16:27;16.50;1.00
15937;DHT22;9163;48.818;8.976;2023-07-20T01:18:56;16.50;1.00
15937;DHT22;9163;48.818;8.976;2023-07-20T01:21:27;16.50;1.00
15937;DHT22;9163;48.818;8.976;2023-07-20T01:27:23;16.40;1.00
15937;DHT22;9163;48.818;8.976;2023-07-20T01:30:08;16.40;1.00
15937;DHT22;9163;48.818;8.976;2023-07-20T01:32:40;16.40;1.00
15937;DHT22;9163;48.818;8.976;2023-07-20T01:35:10;16.30;1.00
15937;DHT22;9163;48.818;8.976;2023-07-20T01:37:41;16.40;1.00
15937;DHT22;9163;48.818;8.976;2023-07-20T01:40:10;16.40;1.00
15937;DHT22;9163;48.818;8.976;2023-07-20T01:42:38;16.40;1.00
15937;DHT22;9163;48.818;8.976;2023-07-20T01:45:06;16.30;1.00
15937;DHT22;9163;48.818;8.976;2023-07-20T01:47:33;16.30;1.00
15937;DHT22;9163;48.818;8.976;2023-07-20T01:50:02;16.20;1.00
15937;DHT22;9163;48.818;8.976;2023-07-20T01:52:29;16.10;1.00
15937;DHT22;9163;48.818;8.976;2023-07-20T01:54:56;16.00;1.00
15937;DHT22;9163;48.818;8.976;2023-07-20T01:57:24;15.90;1.00
15937;DHT22;9163;48.818;8.976;2023-07-20T01:59:51;15.90;1.00
15937;DHT22;9163;48.818;8.976;2023-07-20T02:02:18;15.90;1.00
15937;DHT22;9163;48.818;8.976;2023-07-20T02:04:46;15.90;1.00
15937;DHT22;9163;48.818;8.976;2023-07-20T02:07:15;15.90;1.00
15937;DHT22;9163;48.818;8.976;2023-07-20T02:09:42;15.90;1.00
15937;DHT22;9163;48.818;8.976;2023-07-20T02:12:09;15.90;1.00
15937;DHT22;9163;48.818;8.976;2023-07-20T02:14:37;16.00;1.00
15937;DHT22;9163;48.818;8.976;2023-07-20T02:17:05;15.90;1.00
15937;DHT22;9163;48.818;8.976;2023-07-20T02:19:32;15.70;1.00
15937;DHT22;9163;48.818;8.976;2023-07-20T02:21:59;15.70;1.00
15937;DHT22;9163;48.818;8.976;2023-07-20T02:24:28;15.60;2.40
15937;DHT22;9163;48.818;8.976;2023-07-20T02:26:55;15.50;6.30
15937;DHT22;9163;48.818;8.976;2023-07-20T02:29:22;15.50;9.90
15937;DHT22;9163;48.818;8.976;2023-07-20T02:31:50;15.50;14.00
15937;DHT22;9163;48.818;8.976;2023-07-20T02:34:17;15.40;17.70
15937;DHT22;9163;48.818;8.976;2023-07-20T02:36:44;15.40;23.50
15937;DHT22;9163;48.818;8.976;2023-07-20T02:39:12;15.40;29.50
15937;DHT22;9163;48.818;8.976;2023-07-20T02:41:41;15.30;29.80
15937;DHT22;9163;48.818;8.976;2023-07-20T02:44:08;15.30;32.30
15937;DHT22;9163;48.818;8.976;2023-07-20T02:46:36;15.30;39.10
15937;DHT22;9163;48.818;8.976;2023-07-20T02:49:03;15.20;37.30
15937;DHT22;9163;48.818;8.976;2023-07-20T02:51:30;15.20;46.10
15937;DHT22;9163;48.818;8.976;2023-07-20T02:53:58;15.20;44.50
15937;DHT22;9163;48.818;8.976;2023-07-20T02:56:26;15.20;50.50
15937;DHT22;9163;48.818;8.976;2023-07-20T02:58:55;15.10;52.30
15937;DHT22;9163;48.818;8.976;2023-07-20T03:01:23;15.20;54.20
15937;DHT22;9163;48.818;8.976;2023-07-20T03:03:50;15.30;53.80
15937;DHT22;9163;48.818;8.976;2023-07-20T03:06:17;15.30;51.60
15937;DHT22;9163;48.818;8.976;2023-07-20T03:08:44;15.30;49.70
15937;DHT22;9163;48.818;8.976;2023-07-20T03:11:13;15.30;55.50
15937;DHT22;9163;48.818;8.976;2023-07-20T03:13:41;15.30;50.30
15937;DHT22;9163;48.818;8.976;2023-07-20T03:16:10;15.30;51.10
15937;DHT22;9163;48.818;8.976;2023-07-20T03:18:38;15.30;44.70
15937;DHT22;9163;48.818;8.976;2023-07-20T03:21:06;15.30;47.60
15937;DHT22;9163;48.818;8.976;2023-07-20T03:23:34;15.30;45.20
15937;DHT22;9163;48.818;8.976;2023-07-20T03:26:01;15.30;49.60
15937;DHT22;9163;48.818;8.976;2023-07-20T03:28:28;15.30;48.90
15937;DHT22;9163;48.818;8.976;2023-07-20T03:30:56;15.30;50.60
15937;DHT22;9163;48.818;8.976;2023-07-20T03:33:26;15.30;52.40
15937;DHT22;9163;48.818;8.976;2023-07-20T03:35:54;15.20;53.70
15937;DHT22;9163;48.818;8.976;2023-07-20T03:38:21;15.20;57.50
15937;DHT22;9163;48.818;8.976;2023-07-20T03:40:52;15.20;57.10
15937;DHT22;9163;48.818;8.976;2023-07-20T03:43:19;15.20;59.60
15937;DHT22;9163;48.818;8.976;2023-07-20T03:45:47;15.10;65.60
15937;DHT22;9163;48.818;8.976;2023-07-20T03:48:15;15.00;72.60
15937;DHT22;9163;48.818;8.976;2023-07-20T03:50:44;14.90;82.00
15937;DHT22;9163;48.818;8.976;2023-07-20T03:53:11;14.60;94.50
15937;DHT22;9163;48.818;8.976;2023-07-20T03:55:38;14.70;97.20
15937;DHT22;9163;48.818;8.976;2023-07-20T03:58:06;14.70;96.70
15937;DHT22;9163;48.818;8.976;2023-07-20T04:00:34;14.70;97.60
15937;DHT22;9163;48.818;8.976;2023-07-20T04:03:01;14.70;99.80
15937;DHT22;9163;48.818;8.976;2023-07-20T04:05:28;14.80;97.70
15937;DHT22;9163;48.818;8.976;2023-07-20T04:07:58;14.90;98.30
15937;DHT22;9163;48.818;8.976;2023-07-20T04:10:25;15.00;95.40
15937;DHT22;9163;48.818;8.976;2023-07-20T04:12:52;15.00;92.60
15937;DHT22;9163;48.818;8.976;2023-07-20T04:15:19;15.10;92.00
15937;DHT22;9163;48.818;8.976;2023-07-20T04:17:47;15.10;90.60
15937;DHT22;9163;48.818;8.976;2023-07-20T04:20:14;15.20;87.40
15937;DHT22;9163;48.818;8.976;2023-07-20T04:22:44;15.30;80.90
15937;DHT22;9163;48.818;8.976;2023-07-20T04:25:12;15.40;78.90
15937;DHT22;9163;48.818;8.976;2023-07-20T04:27:39;15.50;75.20
15937;DHT22;9163;48.818;8.976;2023-07-20T04:30:07;15.50;75.90
15937;DHT22;9163;48.818;8.976;2023-07-20T04:32:35;15.60;74.20
15937;DHT22;9163;48.818;8.976;2023-07-20T04:35:06;15.80;69.90
15937;DHT22;9163;48.818;8.976;2023-07-20T04:37:34;15.80;70.60
15937;DHT22;9163;48.818;8.976;2023-07-20T04:40:01;15.90;65.80
15937;DHT22;9163;48.818;8.976;2023-07-20T04:42:30;16.00;60.90
15937;DHT22;9163;48.818;8.976;2023-07-20T04:44:58;16.10;58.60
15937;DHT22;9163;48.818;8.976;2023-07-20T04:47:25;16.20;53.70
15937;DHT22;9163;48.818;8.976;2023-07-20T04:49:52;16.30;45.50
15937;DHT22;9163;48.818;8.976;2023-07-20T04:52:19;16.40;41.40
15937;DHT22;9163;48.818;8.976;2023-07-20T04:54:47;16.50;35.00
15937;DHT22;9163;48.818;8.976;2023-07-20T04:57:14;16.70;32.90
15937;DHT22;9163;48.818;8.976;2023-07-20T04:59:42;16.80;32.40
15937;DHT22;9163;48.818;8.976;2023-07-20T05:02:10;16.80;30.60
15937;DHT22;9163;48.818;8.976;2023-07-20T05:04:37;16.80;40.10
15937;DHT22;9163;48.818;8.976;2023-07-20T05:07:04;16.80;43.20
15937;DHT22;9163;48.818;8.976;2023-07-20T05:09:32;16.70;55.70
15937;DHT22;9163;48.818;8.976;2023-07-20T05:11:59;16.80;49.60
15937;DHT22;9163;48.818;8.976;2023-07-20T05:14:26;16.90;45.50
15937;DHT22;9163;48.818;8.976;2023-07-20T05:16:55;17.10;36.00
15937;DHT22;9163;48.818;8.976;2023-07-20T05:19:22;17.20;23.70
15937;DHT22;9163;48.818;8.976;2023-07-20T05:21:49;17.20;15.60
15937;DHT22;9163;48.818;8.976;2023-07-20T05:24:16;17.20;18.40
15937;DHT22;9163;48.818;8.976;2023-07-20T05:26:43;17.20;17.80
15937;DHT22;9163;48.818;8.976;2023-07-20T05:29:11;17.30;19.10
15937;DHT22;9163;48.818;8.976;2023-07-20T05:31:38;17.50;15.70
15937;DHT22;9163;48.818;8.976;2023-07-20T05:34:07;17.60;10.30
15937;DHT22;9163;48.818;8.976;2023-07-20T05:36:34;17.80;7.80
15937;DHT22;9163;48.818;8.976;2023-07-20T05:39:02;17.80;1.00
15937;DHT22;9163;48.818;8.976;2023-07-20T05:41:30;17.90;1.00
15937;DHT22;9163;48.818;8.976;2023-07-20T05:43:57;17.90;1.00
15937;DHT22;9163;48.818;8.976;2023-07-20T05:46:24;17.90;1.00
15937;DHT22;9163;48.818;8.976;2023-07-20T05:48:51;17.90;1.00
15937;DHT22;9163;48.818;8.976;2023-07-20T05:51:20;18.10;1.00
15937;DHT22;9163;48.818;8.976;2023-07-20T05:53:47;18.00;1.00
15937;DHT22;9163;48.818;8.976;2023-07-20T05:56:14;18.30;1.00
15937;DHT22;9163;48.818;8.976;2023-07-20T05:58:41;18.50;1.00
15937;DHT22;9163;48.818;8.976;2023-07-20T06:01:09;18.50;1.00
15937;DHT22;9163;48.818;8.976;2023-07-20T06:03:36;18.70;1.00
15937;DHT22;9163;48.818;8.976;2023-07-20T06:06:04;18.70;1.00
15937;DHT22;9163;48.818;8.976;2023-07-20T06:08:33;18.70;1.00
15937;DHT22;9163;48.818;8.976;2023-07-20T06:11:01;18.70;1.00
15937;DHT22;9163;48.818;8.976;2023-07-20T06:13:28;18.70;1.00
15937;DHT22;9163;48.818;8.976;2023-07-20T06:15:55;18.70;1.00
15937;DHT22;9163;48.818;8.976;2023-07-20T06:18:22;18.80;1.00
15937;DHT22;9163;48.818;8.976;2023-07-20T06:20:50;18.70;1.00
15937;DHT22;9163;48.818;8.976;2023-07-20T06:23:18;18.60;1.00
15937;DHT22;9163;48.818;8.976;2023-07-20T06:25:47;18.50;1.00
15937;DHT22;9163;48.818;8.976;2023-07-20T06:28:14;18.60;1.00
15937;DHT22;9163;48.818;8.976;2023-07-20T06:30:42;18.80;1.00
15937;DHT22;9163;48.818;8.976;2023-07-20T06:33:09;18.80;1.00
15937;DHT22;9163;48.818;8.976;2023-07-20T06:35:36;18.90;1.00
15937;DHT22;9163;48.818;8.976;2023-07-20T06:38:04;18.80;1.00
15937;DHT22;9163;48.818;8.976;2023-07-20T06:40:31;19.00;1.00
15937;DHT22;9163;48.818;8.976;2023-07-20T06:43:00;19.10;1.00
15937;DHT22;9163;48.818;8.976;2023-07-20T06:45:27;19.40;1.00
15937;DHT22;9163;48.818;8.976;2023-07-20T06:47:54;19.50;1.00
15937;DHT22;9163;48.818;8.976;2023-07-20T06:50:21;19.30;1.00
15937;DHT22;9163;48.818;8.976;2023-07-20T06:52:48;19.40;1.00
15937;DHT22;9163;48.818;8.976;2023-07-20T06:55:16;19.30;1.00
15937;DHT22;9163;48.818;8.976;2023-07-20T06:57:43;19.40;1.00
15937;DHT22;9163;48.818;8.976;2023-07-20T07:00:13;19.50;1.00
15937;DHT22;9163;48.818;8.976;2023-07-20T07:02:40;19.60;1.00
15937;DHT22;9163;48.818;8.976;2023-07-20T07:05:07;19.40;1.00
15937;DHT22;9163;48.818;8.976;2023-07-20T07:07:35;19.50;1.00
15937;DHT22;9163;48.818;8.976;2023-07-20T07:10:02;19.40;1.00
15937;DHT22;9163;48.818;8.976;2023-07-20T07:12:31;19.50;1.00
15937;DHT22;9163;48.818;8.976;2023-07-20T07:14:58;19.50;1.00
15937;DHT22;9163;48.818;8.976;2023-07-20T07:17:27;19.70;1.00
15937;DHT22;9163;48.818;8.976;2023-07-20T07:19:55;19.80;1.00
15937;DHT22;9163;48.818;8.976;2023-07-20T07:22:22;20.10;1.00
15937;DHT22;9163;48.818;8.976;2023-07-20T07:24:49;20.00;1.00
15937;DHT22;9163;48.818;8.976;2023-07-20T07:27:16;19.90;1.00
15937;DHT22;9163;48.818;8.976;2023-07-20T07:29:44;20.00;1.00
15937;DHT22;9163;48.818;8.976;2023-07-20T07:32:11;19.90;1.00
15937;DHT22;9163;48.818;8.976;2023-07-20T07:34:40;20.10;1.00
15937;DHT22;9163;48.818;8.976;2023-07-20T07:37:07;20.20;1.00
15937;DHT22;9163;48.818;8.976;2023-07-20T07:39:34;20.40;1.00
15937;DHT22;9163;48.818;8.976;2023-07-20T07:42:01;20.50;1.00
15937;DHT22;9163;48.818;8.976;2023-07-20T07:44:29;20.80;1.00
15937;DHT22;9163;48.818;8.976;2023-07-20T07:46:56;20.30;1.00
15937;DHT22;9163;48.818;8.976;2023-07-20T07:49:23;20.40;1.00
15937;DHT22;9163;48.818;8.976;2023-07-20T07:51:52;20.60;1.00
15937;DHT22;9163;48.818;8.976;2023-07-20T07:54:19;20.70;1.00
15937;DHT22;9163;48.818;8.976;2023-07-20T07:56:46;20.70;1.00
15937;DHT22;9163;48.818;8.976;2023-07-20T07:59:13;20.70;1.00
15937;DHT22;9163;48.818;8.976;2023-07-20T08:01:41;20.90;1.00
15937;DHT22;9163;48.818;8.976;2023-07-20T08:04:08;20.90;1.00
15937;DHT22;9163;48.818;8.976;2023-07-20T08:06:35;20.90;1.00
15937;DHT22;9163;48.818;8.976;2023-07-20T08:09:04;20.80;1.00
15937;DHT22;9163;48.818;8.976;2023-07-20T08:11:32;20.90;1.00
15937;DHT22;9163;48.818;8.976;2023-07-20T08:14:00;21.30;1.00
15937;DHT22;9163;48.818;8.976;2023-07-20T08:16:27;21.40;1.00
15937;DHT22;9163;48.818;8.976;2023-07-20T08:18:54;21.00;1.00
15937;DHT22;9163;48.818;8.976;2023-07-20T08:21:22;21.00;1.00
15937;DHT22;9163;48.818;8.976;2023-07-20T08:23:49;21.40;1.00
15937;DHT22;9163;48.818;8.976;2023-07-20T08:26:18;21.70;1.00
15937;DHT22;9163;48.818;8.976;2023-07-20T08:28:48;22.20;1.00
15937;DHT22;9163;48.818;8.976;2023-07-20T08:31:15;22.60;1.00
15937;DHT22;9163;48.818;8.976;2023-07-20T08:33:43;22.90;1.00
15937;DHT22;9163;48.818;8.976;2023-07-20T08:36:10;23.00;1.00
15937;DHT22;9163;48.818;8.976;2023-07-20T08:38:37;22.70;1.00
15937;DHT22;9163;48.818;8.976;2023-07-20T08:41:04;22.30;99.90
15937;DHT22;9163;48.818;8.976;2023-07-20T08:43:33;22.50;99.90
15937;DHT22;9163;48.818;8.976;2023-07-20T08:46:02;22.70;99.90
15937;DHT22;9163;48.818;8.976;2023-07-20T08:48:30;22.60;99.90
15937;DHT22;9163;48.818;8.976;2023-07-20T08:50:58;21.90;1.00
15937;DHT22;9163;48.818;8.976;2023-07-20T08:53:27;22.40;1.00
15937;DHT22;9163;48.818;8.976;2023-07-20T08:55:55;22.80;1.00
15937;DHT22;9163;48.818;8.976;2023-07-20T08:58:23;22.90;99.90
15937;DHT22;9163;48.818;8.976;2023-07-20T09:00:54;23.30;99.90
15937;DHT22;9163;48.818;8.976;2023-07-20T09:03:22;24.00;99.90
15937;DHT22;9163;48.818;8.976;2023-07-20T09:05:49;24.10;99.90
15937;DHT22;9163;48.818;8.976;2023-07-20T09:08:16;24.00;99.90
15937;DHT22;9163;48.818;8.976;2023-07-20T09:10:43;24.30;99.90
15937;DHT22;9163;48.818;8.976;2023-07-20T09:13:14;23.40;99.90
15937;DHT22;9163;48.818;8.976;2023-07-20T09:15:45;23.80;99.90
15937;DHT22;9163;48.818;8.976;2023-07-20T09:18:23;24.00;99.90
15937;DHT22;9163;48.818;8.976;2023-07-20T09:20:51;23.90;99.90
15937;DHT22;9163;48.818;8.976;2023-07-20T09:23:18;24.00;99.90
15937;DHT22;9163;48.818;8.976;2023-07-20T09:25:48;24.20;99.90
15937;DHT22;9163;48.818;8.976;2023-07-20T09:28:17;24.80;99.90
15937;DHT22;9163;48.818;8.976;2023-07-20T09:30:44;25.30;99.90
15937;DHT22;9163;48.818;8.976;2023-07-20T09:33:21;25.30;99.90
15937;DHT22;9163;48.818;8.976;2023-07-20T09:35:48;25.30;99.90
15937;DHT22;9163;48.818;8.976;2023-07-20T09:38:16;25.10;99.90
15937;DHT22;9163;48.818;8.976;2023-07-20T09:40:43;24.70;99.90
15937;DHT22;9163;48.818;8.976;2023-07-20T09:43:11;24.50;99.90
15937;DHT22;9163;48.818;8.976;2023-07-20T09:45:40;24.70;99.90
15937;DHT22;9163;48.818;8.976;2023-07-20T09:48:08;24.50;99.90
15937;DHT22;9163;48.818;8.976;2023-07-20T09:50:41;24.80;99.90
15937;DHT22;9163;48.818;8.976;2023-07-20T09:53:12;25.10;99.90
15937;DHT22;9163;48.818;8.976;2023-07-20T09:55:40;24.70;99.90
15937;DHT22;9163;48.818;8.976;2023-07-20T09:58:09;24.50;99.90
15937;DHT22;9163;48.818;8.976;2023-07-20T10:00:38;25.30;99.90
15937;DHT22;9163;48.818;8.976;2023-07-20T10:03:06;25.40;99.90
15937;DHT22;9163;48.818;8.976;2023-07-20T10:05:35;25.40;99.90
15937;DHT22;9163;48.818;8.976;2023-07-20T10:08:04;25.90;99.90
15937;DHT22;9163;48.818;8.976;2023-07-20T10:10:34;26.30;99.90
15937;DHT22;9163;48.818;8.976;2023-07-20T10:13:02;26.80;99.90
15937;DHT22;9163;48.818;8.976;2023-07-20T10:15:33;25.90;99.90
15937;DHT22;9163;48.818;8.976;2023-07-20T10:18:07;25.30;99.90
15937;DHT22;9163;48.818;8.976;2023-07-20T10:20:36;25.50;99.90
15937;DHT22;9163;48.818;8.976;2023-07-20T10:23:07;25.60;99.90
15937;DHT22;9163;48.818;8.976;2023-07-20T10:25:34;25.00;99.90
15937;DHT22;9163;48.818;8.976;2023-07-20T10:28:05;25.40;99.90
15937;DHT22;9163;48.818;8.976;2023-07-20T10:30:34;25.40;99.90
15937;DHT22;9163;48.818;8.976;2023-07-20T10:33:02;25.70;99.90
15937;DHT22;9163;48.818;8.976;2023-07-20T10:35:30;26.60;99.90
15937;DHT22;9163;48.818;8.976;2023-07-20T10:38:00;27.20;99.90
15937;DHT22;9163;48.818;8.976;2023-07-20T10:40:34;27.10;99.90
15937;DHT22;9163;48.818;8.976;2023-07-20T10:43:03;26.30;99.90
15937;DHT22;9163;48.818;8.976;2023-07-20T10:45:40;25.50;99.90
15937;DHT22;9163;48.818;8.976;2023-07-20T10:48:18;26.00;99.90
15937;DHT22;9163;48.818;8.976;2023-07-20T10:50:48;25.70;99.90
15937;DHT22;9163;48.818;8.976;2023-07-20T10:53:33;25.80;99.90
15937;DHT22;9163;48.818;8.976;2023-07-20T10:56:11;26.00;99.90
15937;DHT22;9163;48.818;8.976;2023-07-20T10:58:39;26.70;99.90
15937;DHT22;9163;48.818;8.976;2023-07-20T11:01:07;27.40;99.90
15937;DHT22;9163;48.818;8.976;2023-07-20T11:03:36;26.90;99.90
15937;DHT22;9163;48.818;8.976;2023-07-20T11:06:29;27.00;99.90
15937;DHT22;9163;48.818;8.976;2023-07-20T11:09:04;27.20;99.90
15937;DHT22;9163;48.818;8.976;2023-07-20T11:11:34;27.30;99.90
15937;DHT22;9163;48.818;8.976;2023-07-20T11:14:04;28.20;99.90
15937;DHT22;9163;48.818;8.976;2023-07-20T11:16:36;27.90;99.90
15937;DHT22;9163;48.818;8.976;2023-07-20T11:19:03;26.70;99.90
15937;DHT22;9163;48.818;8.976;2023-07-20T11:21:36;27.00;99.90
15937;DHT22;9163;48.818;8.976;2023-07-20T11:24:05;26.70;99.90
15937;DHT22;9163;48.818;8.976;2023-07-20T11:26:44;27.50;99.90
15937;DHT22;9163;48.818;8.976;2023-07-20T11:29:12;28.00;99.90
15937;DHT22;9163;48.818;8.976;2023-07-20T11:31:41;28.40;99.90
15937;DHT22;9163;48.818;8.976;2023-07-20T11:34:10;28.80;99.90
15937;DHT22;9163;48.818;8.976;2023-07-20T11:36:39;28.70;99.90
15937;DHT22;9163;48.818;8.976;2023-07-20T11:39:08;28.40;99.90
15937;DHT22;9163;48.818;8.976;2023-07-20T11:41:36;28.10;99.90
15937;DHT22;9163;48.818;8.976;2023-07-20T11:44:05;27.40;99.90
15937;DHT22;9163;48.818;8.976;2023-07-20T11:46:34;28.30;99.90
15937;DHT22;9163;48.818;8.976;2023-07-20T11:49:02;28.70;99.90
15937;DHT22;9163;48.818;8.976;2023-07-20T11:51:30;27.60;99.90
15937;DHT22;9163;48.818;8.976;2023-07-20T11:53:58;27.70;99.90
15937;DHT22;9163;48.818;8.976;2023-07-20T11:56:26;28.40;99.90
15937;DHT22;9163;48.818;8.976;2023-07-20T11:58:57;29.10;99.90
15937;DHT22;9163;48.818;8.976;2023-07-20T12:01:27;29.50;99.90
15937;DHT22;9163;48.818;8.976;2023-07-20T12:03:57;29.40;99.90
15937;DHT22;9163;48.818;8.976;2023-07-20T12:06:28;29.20;99.90
15937;DHT22;9163;48.818;8.976;2023-07-20T12:08:57;28.60;99.90
15937;DHT22;9163;48.818;8.976;2023-07-20T12:11:31;28.80;99.90
15937;DHT22;9163;48.818;8.976;2023-07-20T12:13:59;29.40;99.90
15937;DHT22;9163;48.818;8.976;2023-07-20T12:16:29;28.20;99.90
15937;DHT22;9163;48.818;8.976;2023-07-20T12:19:00;27.70;99.90
15937;DHT22;9163;48.818;8.976;2023-07-20T12:21:27;27.30;99.90
15937;DHT22;9163;48.818;8.976;2023-07-20T12:23:56;27.80;99.90
15937;DHT22;9163;48.818;8.976;2023-07-20T12:26:24;28.50;99.90
15937;DHT22;9163;48.818;8.976;2023-07-20T12:28:52;28.50;99.90
15937;DHT22;9163;48.818;8.976;2023-07-20T12:31:19;28.80;99.90
15937;DHT22;9163;48.818;8.976;2023-07-20T12:33:49;28.50;99.90
15937;DHT22;9163;48.818;8.976;2023-07-20T12:36:17;29.50;99.90
15937;DHT22;9163;48.818;8.976;2023-07-20T12:38:44;28.60;99.90
15937;DHT22;9163;48.818;8.976;2023-07-20T12:41:13;28.70;99.90
15937;DHT22;9163;48.818;8.976;2023-07-20T12:43:40;29.10;99.90
15937;DHT22;9163;48.818;8.976;2023-07-20T12:46:08;28.50;99.90
15937;DHT22;9163;48.818;8.976;2023-07-20T12:48:36;28.80;99.90
15937;DHT22;9163;48.818;8.976;2023-07-20T12:51:07;29.10;99.90
15937;DHT22;9163;48.818;8.976;2023-07-20T12:53:35;29.70;89.60
15937;DHT22;9163;48.818;8.976;2023-07-20T12:56:02;30.00;51.30
15937;DHT22;9163;48.818;8.976;2023-07-20T12:58:30;30.20;99.90
15937;DHT22;9163;48.818;8.976;2023-07-20T13:00:57;29.40;99.90
15937;DHT22;9163;48.818;8.976;2023-07-20T13:03:24;28.60;99.90
15937;DHT22;9163;48.818;8.976;2023-07-20T13:05:51;28.10;99.90
15937;DHT22;9163;48.818;8.976;2023-07-20T13:08:20;27.80;53.20
15937;DHT22;9163;48.818;8.976;2023-07-20T13:10:51;29.00;45.70
15937;DHT22;9163;48.818;8.976;2023-07-20T13:13:18;29.40;65.90
15937;DHT22;9163;48.818;8.976;2023-07-20T13:15:46;29.80;89.70
15937;DHT22;9163;48.818;8.976;2023-07-20T13:18:14;29.50;99.90
15937;DHT22;9163;48.818;8.976;2023-07-20T13:20:41;29.30;29.10
15937;DHT22;9163;48.818;8.976;2023-07-20T13:23:08;27.80;1.00
15937;DHT22;9163;48.818;8.976;2023-07-20T13:25:37;28.10;5.60
15937;DHT22;9163;48.818;8.976;2023-07-20T13:28:05;28.60;64.80
15937;DHT22;9163;48.818;8.976;2023-07-20T13:30:32;28.80;45.10
15937;DHT22;9163;48.818;8.976;2023-07-20T13:32:59;29.10;99.90
15937;DHT22;9163;48.818;8.976;2023-07-20T13:35:26;29.60;99.90
15937;DHT22;9163;48.818;8.976;2023-07-20T13:37:54;30.20;99.90
15937;DHT22;9163;48.818;8.976;2023-07-20T13:40:21;29.80;99.90
15937;DHT22;9163;48.818;8.976;2023-07-20T13:42:50;30.10;99.90
15937;DHT22;9163;48.818;8.976;2023-07-20T13:45:17;30.20;99.90
15937;DHT22;9163;48.818;8.976;2023-07-20T13:47:45;30.30;99.90
15937;DHT22;9163;48.818;8.976;2023-07-20T13:50:12;29.50;99.90
15937;DHT22;9163;48.818;8.976;2023-07-20T13:52:39;28.80;99.90
15937;DHT22;9163;48.818;8.976;2023-07-20T13:55:09;29.10;99.90
15937;DHT22;9163;48.818;8.976;2023-07-20T13:57:37;28.70;99.90
15937;DHT22;9163;48.818;8.976;2023-07-20T14:00:07;29.00;99.90
15937;DHT22;9163;48.818;8.976;2023-07-20T14:02:36;29.20;99.90
15937;DHT22;9163;48.818;8.976;2023-07-20T14:05:04;29.30;99.90
15937;DHT22;9163;48.818;8.976;2023-07-20T14:07:32;29.90;99.90
15937;DHT22;9163;48.818;8.976;2023-07-20T14:09:59;30.40;99.90
15937;DHT22;9163;48.818;8.976;2023-07-20T14:12:26;30.30;99.90
15937;DHT22;9163;48.818;8.976;2023-07-20T14:14:54;28.70;99.90
15937;DHT22;9163;48.818;8.976;2023-07-20T14:17:22;29.40;99.90
15937;DHT22;9163;48.818;8.976;2023-07-20T14:19:52;29.90;99.90
15937;DHT22;9163;48.818;8.976;2023-07-20T14:22:20;30.20;99.90
15937;DHT22;9163;48.818;8.976;2023-07-20T14:24:47;29.50;99.90
15937;DHT22;9163;48.818;8.976;2023-07-20T14:27:14;29.60;99.90
15937;DHT22;9163;48.818;8.976;2023-07-20T14:29:42;30.10;99.90
15937;DHT22;9163;48.818;8.976;2023-07-20T14:32:09;29.70;99.90
15937;DHT22;9163;48.818;8.976;2023-07-20T14:34:38;29.00;99.90
15937;DHT22;9163;48.818;8.976;2023-07-20T14:37:06;29.30;99.90
15937;DHT22;9163;48.818;8.976;2023-07-20T14:39:34;29.00;99.90
15937;DHT22;9163;48.818;8.976;2023-07-20T14:42:01;29.50;99.90
15937;DHT22;9163;48.818;8.976;2023-07-20T14:44:30;29.70;99.90
15937;DHT22;9163;48.818;8.976;2023-07-20T14:46:57;28.70;99.90
15937;DHT22;9163;48.818;8.976;2023-07-20T14:49:26;28.90;99.90
15937;DHT22;9163;48.818;8.976;2023-07-20T14:51:54;29.10;99.90
15937;DHT22;9163;48.818;8.976;2023-07-20T14:54:21;29.40;99.90
15937;DHT22;9163;48.818;8.976;2023-07-20T14:56:50;29.60;99.90
15937;DHT22;9163;48.818;8.976;2023-07-20T14:59:18;29.50;99.90
15937;DHT22;9163;48.818;8.976;2023-07-20T15:01:46;29.50;99.90
15937;DHT22;9163;48.818;8.976;2023-07-20T15:04:13;29.30;99.90
15937;DHT22;9163;48.818;8.976;2023-07-20T15:06:41;29.60;99.90
15937;DHT22;9163;48.818;8.976;2023-07-20T15:09:10;30.10;99.90
15937;DHT22;9163;48.818;8.976;2023-07-20T15:11:37;28.60;99.90
15937;DHT22;9163;48.818;8.976;2023-07-20T15:14:05;28.40;99.90
15937;DHT22;9163;48.818;8.976;2023-07-20T15:16:32;27.40;99.90
15937;DHT22;9163;48.818;8.976;2023-07-20T15:19:01;28.10;99.90
15937;DHT22;9163;48.818;8.976;2023-07-20T15:21:28;28.50;99.90
15937;DHT22;9163;48.818;8.976;2023-07-20T15:23:57;28.70;99.90
15937;DHT22;9163;48.818;8.976;2023-07-20T15:26:26;28.70;99.90
15937;DHT22;9163;48.818;8.976;2023-07-20T15:28:53;28.40;99.90
15937;DHT22;9163;48.818;8.976;2023-07-20T15:31:20;28.20;99.90
15937;DHT22;9163;48.818;8.976;2023-07-20T15:33:47;28.00;99.90
15937;DHT22;9163;48.818;8.976;2023-07-20T15:36:15;28.60;99.90
15937;DHT22;9163;48.818;8.976;2023-07-20T15:38:42;28.50;99.90
15937;DHT22;9163;48.818;8.976;2023-07-20T15:41:09;28.70;99.90
15937;DHT22;9163;48.818;8.976;2023-07-20T15:43:39;28.30;99.90
15937;DHT22;9163;48.818;8.976;2023-07-20T15:46:44;28.60;99.10
15937;DHT22;9163;48.818;8.976;2023-07-20T15:49:11;29.00;99.90
15937;DHT22;9163;48.818;8.976;2023-07-20T15:51:38;28.80;99.90
15937;DHT22;9163;48.818;8.976;2023-07-20T15:54:09;28.50;99.90
15937;DHT22;9163;48.818;8.976;2023-07-20T15:56:37;28.20;99.90
15937;DHT22;9163;48.818;8.976;2023-07-20T15:59:08;28.30;99.90
15937;DHT22;9163;48.818;8.976;2023-07-20T16:01:37;28.10;99.90
15937;DHT22;9163;48.818;8.976;2023-07-20T16:04:05;28.20;99.90